Little Suamico, Wisconsin
Current Conditions -  °F | °C
As of 11:15 PM on Friday 24 Oct 2014 (Local Time) from KOCQ Reporting Station
Overcast Overcast  
Wind Chill: 51°   Ceiling: 2300
Heat Index: 51°   Visibility: 7mi
Dew Point: 51°   Wind: 3mph
Humidity: 100%   Direction: 210°SSW
Pressure: 29.83"   Gusts: NA
Location:  44.72°N, 88.01°W
Report Text: KOCQ 250415Z AUTO 21003KT 7SM OVC023 10/10 A2983 RMK AO1 T01030103
Loading
Personal Weather Stations






























Interactive Weather Map
Tropical Storm Tracking
New forecast layout! Learn more

10-Day Weather Forecast

Advertisements
Track Severe Weather on mobile